Details From YPPH - Perth
To YPXM - Christmas Island
Flight Number -
Tags Standard
Created
Modified
Stats Distance 1,414 nm / 2,619 km
Max Altitude 5,000 ft / 1,524 m
Waypoints 7
Social Downloads 5
Likes 0
Share VATSIM

Download

Looking for another format? Having issues loading an existing format? Contact us
Advertisement - Login to hide

Notes

None

Route

YPPH PH002 PH008 PEA96 XMX09 XMX25 YPXM

ID Type Via Altitude Latitude Longitude Leg Dist Tot Dist Heading (true) Name
O YPPH APT - 0 ft / 0 m -31.94367˚ 115.96407˚ - 0 nm - -
PH002 FIX - 500 ft / 152 m -31.91359˚ 115.97257˚ 1 nm 1 nm 13° / 13° -
PH008 FIX - 1,500 ft / 457 m -31.81689˚ 116.00367˚ 6 nm 7 nm 15° / 15° -
PEA96 FIX - 5,000 ft / 1,524 m -31.74074˚ 116.01722˚ 4 nm 12 nm 9° / 9° -
XMX09 FIX - 5,000 ft / 1,524 m -10.58070˚ 105.70063˚ 1393 nm 1406 nm 333° / 337° -
XMX25 FIX - 500 ft / 152 m -10.47206˚ 105.69295˚ 6 nm 1413 nm 356° / 356° -
O YPXM APT - 0 ft / 0 m -10.45026˚ 105.69101˚ 1 nm 1414 nm 355° / 355° Christmas Island

Altitude Profile

Advertisement - Login to hide

Weather


0- 5 10 15 20 25 30 35+ Temperature / ° C

Clouds and Precipitation
Forecast for 2017-12-13 12:00 UTC. Updated 23 minutes ago

Ground ~20,000 ft ~40,000 ft Winds

YPPH

Details ICAO YPPH (PER)
Name Perth
Region Australia
Timezone Australia/Perth (UTC+8.0)
Stats Elevation 70 ft / 21 m (AMSL)
Location -31.939673° 115.966614°
Runways 2
Magnetic Variation 1.670° W

METAR

YPPH 130700Z 24017KT 9999 FEW044 25/12 Q1015 NOSIG

Decode

TAF

TAF AMD YPPH 130707Z 1307/1412 22018KT CAVOK FM131200 18012KT CAVOK FM131800 12010KT CAVOK FM140600 22018KT CAVOK

Decode

Departure Runways

ID Width Length Bearing (true) Bearing (mag) Surface Threshold Offset Overrun Length
03 151 ft / 46 m 11,390 ft / 3,472 m 13.89° 15.56° Asphalt 0 ft / 0 m 0 ft / 0 m
06 151 ft / 46 m 7,096 ft / 2,163 m 58.78° 60.45° Asphalt 0 ft / 0 m 0 ft / 0 m
21 151 ft / 46 m 11,390 ft / 3,472 m 193.88° 195.55° Asphalt 0 ft / 0 m 0 ft / 0 m
24 151 ft / 46 m 7,096 ft / 2,163 m 238.77° 240.44° Asphalt 0 ft / 0 m 0 ft / 0 m

YPXM

Details ICAO YPXM (XCH)
Name Christmas Island
Region Australia
Timezone Indian/Christmas (UTC+7.0)
Stats Elevation 916 ft / 279 m (AMSL)
Location -10.450215° 105.690929°
Runways 1
Magnetic Variation 0.383° E

METAR

YPXM 130700Z AUTO 14008KT 9999 // SCT023 27/20 Q1012

Decode

TAF

TAF YPXM 130414Z 1306/1406 15006KT 9999 -SHRA BKN018 INTER 1306/1406 3000 SHRA BKN010

Decode

Destination Runways

ID Width Length Bearing (true) Bearing (mag) Surface Threshold Offset Overrun Length
18 148 ft / 45 m 6,935 ft / 2,114 m 175.52° 175.14° Asphalt 0 ft / 0 m 203 ft / 62 m
36 148 ft / 45 m 6,935 ft / 2,114 m 355.52° 355.14° Asphalt 0 ft / 0 m 203 ft / 62 m

Popular Alternatives